Time;durP1;ratioP1;P1;durP2;ratioP2;P2;SDS_P1;SDS_P2;PMS_P1;PMS_P2;Temp;Humidity;BMP_temperature;BMP_pressure;BME280_temperature;BME280_humidity;BME280_pressure;Samples;Min_cycle;Max_cycle;Signal;HPM_P1;HPM_P2
2021/11/03 00:00:20;;;;;;;4.68;3.58;;;;;;;5.03;96.11;97236.78;4156457;28;20378;-72
2021/11/03 00:02:20;;;;;;;3.88;2.70;;;;;;;5.06;95.56;97229.78;4157819;28;20072;-72
2021/11/03 00:04:21;;;;;;;2.22;1.90;;;;;;;4.99;96.69;97226.94;4153884;28;20041;-72
2021/11/03 00:06:23;;;;;;;4.00;2.70;;;;;;;4.99;97.01;97232.44;4156310;28;20460;-72
2021/11/03 00:08:26;;;;;;;3.27;2.13;;;;;;;4.95;96.49;97223.34;4156279;28;20137;-72
2021/11/03 00:10:27;;;;;;;3.10;2.50;;;;;;;4.97;97.29;97232.81;4155567;28;20659;-72
2021/11/03 00:12:27;;;;;;;2.63;2.10;;;;;;;4.96;96.85;97231.19;4156258;28;20041;-72
2021/11/03 00:14:28;;;;;;;3.35;2.35;;;;;;;4.98;97.63;97230.84;4155312;28;20083;-72
2021/11/03 00:16:28;;;;;;;3.13;2.00;;;;;;;4.97;97.26;97226.53;4155563;28;20124;-72
2021/11/03 00:18:29;;;;;;;2.70;2.20;;;;;;;5.00;97.15;97234.00;4155484;28;20046;-72
2021/11/03 00:20:29;;;;;;;4.47;1.98;;;;;;;5.01;96.33;97225.41;4154864;28;20056;-72
2021/11/03 00:22:30;;;;;;;2.55;2.00;;;;;;;5.03;96.00;97227.78;4155549;28;20039;-72
2021/11/03 00:24:34;;;;;;;3.50;2.00;;;;;;;5.05;96.62;97230.94;4155281;28;20088;-72
2021/11/03 00:26:34;;;;;;;4.05;2.13;;;;;;;5.05;96.59;97225.47;4155073;28;20033;-72
2021/11/03 00:28:35;;;;;;;2.60;1.90;;;;;;;5.04;95.35;97230.13;4155251;28;20477;-72
2021/11/03 00:30:36;;;;;;;2.92;2.30;;;;;;;5.03;96.04;97228.56;4155132;28;20052;-72
2021/11/03 00:32:36;;;;;;;2.58;2.00;;;;;;;5.07;95.60;97229.41;4155580;28;20053;-72
2021/11/03 00:34:36;;;;;;;3.45;2.20;;;;;;;5.05;94.86;97218.03;4155236;28;20411;-72
2021/11/03 00:36:37;;;;;;;2.90;1.95;;;;;;;5.08;95.04;97232.94;4154841;28;20751;-72
2021/11/03 00:38:37;;;;;;;2.30;1.90;;;;;;;5.13;95.13;97231.81;4155775;28;20041;-72
2021/11/03 00:40:38;;;;;;;2.25;1.70;;;;;;;5.12;95.26;97230.22;4158970;28;20485;-72
2021/11/03 00:42:39;;;;;;;2.10;1.73;;;;;;;5.11;95.63;97234.91;4157049;28;20048;-72
2021/11/03 00:44:39;;;;;;;2.50;2.13;;;;;;;5.13;97.24;97238.09;4153837;28;20141;-72
2021/11/03 00:46:39;;;;;;;3.45;2.30;;;;;;;5.06;97.46;97243.50;4154921;28;20477;-72
2021/11/03 00:48:39;;;;;;;5.45;2.58;;;;;;;5.00;97.49;97234.00;4156624;28;20041;-72
2021/11/03 00:50:40;;;;;;;2.55;2.17;;;;;;;4.99;97.75;97233.22;4155219;28;20198;-72
2021/11/03 00:52:41;;;;;;;2.20;2.00;;;;;;;4.99;98.01;97237.91;4156798;28;20029;-72
2021/11/03 00:54:41;;;;;;;2.70;2.10;;;;;;;4.99;97.69;97241.44;4153076;28;20079;-72
2021/11/03 00:56:42;;;;;;;4.93;2.50;;;;;;;4.96;97.66;97244.13;4154929;28;20030;-72
2021/11/03 00:58:42;;;;;;;2.30;1.77;;;;;;;4.98;97.69;97250.03;4154423;28;20033;-72
2021/11/03 01:00:42;;;;;;;3.63;1.63;;;;;;;4.99;97.94;97248.88;4154532;28;20037;-72
2021/11/03 01:02:43;;;;;;;2.88;2.10;;;;;;;5.01;96.89;97244.59;4155841;28;20285;-72
2021/11/03 01:04:45;;;;;;;2.80;2.10;;;;;;;5.07;96.36;97243.13;4156642;28;20079;-72
2021/11/03 01:06:45;;;;;;;2.60;2.00;;;;;;;5.10;96.05;97243.53;4154945;28;20048;-72
2021/11/03 01:08:45;;;;;;;3.92;2.13;;;;;;;5.13;96.50;97245.50;4154875;28;20447;-72
2021/11/03 01:10:49;;;;;;;2.42;2.17;;;;;;;5.13;95.85;97242.78;4154944;28;20056;-72
2021/11/03 01:12:51;;;;;;;2.60;1.95;;;;;;;5.14;96.33;97247.13;4154494;28;20044;-72
2021/11/03 01:14:52;;;;;;;2.65;2.08;;;;;;;5.10;96.97;97238.84;4156553;28;20128;-72
2021/11/03 01:16:52;;;;;;;2.63;2.00;;;;;;;5.12;96.79;97247.47;4155997;28;20760;-72
2021/11/03 01:18:53;;;;;;;2.95;1.80;;;;;;;5.13;96.36;97240.84;4154409;28;20044;-72
2021/11/03 01:20:55;;;;;;;3.03;1.90;;;;;;;5.15;95.51;97240.47;4155057;28;20358;-72
2021/11/03 01:22:55;;;;;;;2.60;1.70;;;;;;;5.16;96.32;97247.53;4154162;28;20076;-72
2021/11/03 01:24:56;;;;;;;2.70;2.20;;;;;;;5.15;95.96;97244.00;4153523;28;20037;-72
2021/11/03 01:26:56;;;;;;;2.80;2.10;;;;;;;5.17;95.38;97246.38;4154840;28;20053;-72
2021/11/03 01:28:56;;;;;;;3.08;2.22;;;;;;;5.17;96.10;97238.94;4153385;28;20038;-72
2021/11/03 01:30:57;;;;;;;4.30;2.28;;;;;;;5.12;96.21;97235.72;4155497;28;20061;-72
2021/11/03 01:32:57;;;;;;;2.70;2.20;;;;;;;5.12;96.33;97235.72;4153707;28;20049;-72
2021/11/03 01:34:58;;;;;;;3.25;2.00;;;;;;;5.13;96.64;97232.63;4155520;28;20052;-72
2021/11/03 01:36:58;;;;;;;2.70;2.00;;;;;;;5.17;96.06;97225.22;4154082;28;20042;-72
2021/11/03 01:38:58;;;;;;;4.00;2.30;;;;;;;5.22;96.04;97230.38;4154531;28;20103;-72
2021/11/03 01:40:59;;;;;;;4.07;2.28;;;;;;;5.24;95.94;97227.25;4155315;28;20033;-72
2021/11/03 01:43:00;;;;;;;3.47;2.35;;;;;;;5.30;95.07;97220.28;4154464;28;20049;-72
2021/11/03 01:45:01;;;;;;;3.78;2.63;;;;;;;5.29;94.97;97210.47;4155234;28;20069;-72
2021/11/03 01:47:39;;;;;;;2.20;2.00;;;;;;;5.35;95.18;97230.91;4154513;28;20049;-72
2021/11/03 01:49:39;;;;;;;2.78;2.10;;;;;;;5.33;95.13;97220.31;4153732;28;20111;-72
2021/11/03 01:51:50;;;;;;;2.83;2.22;;;;;;;5.35;96.21;97220.72;4154653;28;20390;-72
2021/11/03 01:53:51;;;;;;;4.40;2.17;;;;;;;5.28;97.41;97217.09;4154359;28;20389;-72
2021/11/03 01:55:59;;;;;;;4.53;2.42;;;;;;;5.23;97.82;97217.47;4156642;28;20089;-72
2021/11/03 01:58:10;;;;;;;2.90;2.53;;;;;;;5.20;97.54;97216.22;4155882;28;20095;-72
2021/11/03 02:00:19;;;;;;;2.75;2.38;;;;;;;5.18;97.64;97210.34;4159666;28;20049;-72
2021/11/03 02:02:21;;;;;;;2.58;1.95;;;;;;;5.15;97.46;97205.63;4154646;28;20037;-72
2021/11/03 02:04:22;;;;;;;2.88;2.20;;;;;;;5.15;97.47;97208.34;4153790;28;20168;-72
2021/11/03 02:06:26;;;;;;;3.70;2.47;;;;;;;5.16;97.25;97207.19;4153804;28;20068;-72
2021/11/03 02:08:28;;;;;;;2.72;2.25;;;;;;;5.18;96.85;97206.81;4154534;28;20049;-72
2021/11/03 02:10:30;;;;;;;3.47;2.45;;;;;;;5.18;97.01;97196.63;4155780;28;20064;-72
2021/11/03 02:12:30;;;;;;;12.25;3.55;;;;;;;5.21;98.06;97197.81;4157951;28;20128;-72
2021/11/03 02:14:31;;;;;;;3.67;2.47;;;;;;;5.15;98.76;97196.59;4157034;28;20080;-72
2021/11/03 02:16:34;;;;;;;4.07;2.85;;;;;;;5.16;97.98;97196.22;4157883;28;20045;-72
2021/11/03 02:18:36;;;;;;;6.25;2.55;;;;;;;5.16;97.84;97193.47;4157089;28;20041;-72
2021/11/03 02:20:42;;;;;;;5.35;2.72;;;;;;;5.15;97.31;97202.09;4158459;28;20038;-72
2021/11/03 02:23:00;;;;;;;6.85;2.63;;;;;;;5.17;97.16;97197.78;4161301;28;20034;-72
2021/11/03 02:25:06;;;;;;;6.70;2.58;;;;;;;5.23;96.50;97195.53;4162289;28;20049;-72
2021/11/03 02:27:06;;;;;;;7.82;2.80;;;;;;;5.23;96.07;97185.34;4158825;28;20414;-72
2021/11/03 02:29:09;;;;;;;2.65;2.35;;;;;;;5.27;95.87;97197.13;4157554;28;20048;-72
2021/11/03 02:31:28;;;;;;;5.28;2.40;;;;;;;5.28;96.37;97185.00;4156551;28;20048;-72
2021/11/03 02:33:30;;;;;;;3.58;3.05;;;;;;;5.32;96.30;97185.03;4156054;28;20441;-72
2021/11/03 02:35:30;;;;;;;3.78;2.33;;;;;;;5.36;95.06;97191.34;4157315;28;20492;-72
2021/11/03 02:37:32;;;;;;;3.95;2.55;;;;;;;5.45;94.37;97194.56;4156084;28;20038;-72
2021/11/03 02:39:45;;;;;;;3.05;2.65;;;;;;;5.46;94.76;97181.66;4163019;28;20312;-72
2021/11/03 02:41:46;;;;;;;;;;;;;;;5.50;94.27;97179.75;4164338;28;20432;-72
2021/11/03 02:44:01;;;;;;;2.92;2.28;;;;;;;5.47;94.05;97186.78;4158667;28;20015;-72
2021/11/03 02:46:01;;;;;;;2.85;2.25;;;;;;;5.53;93.43;97190.75;4158778;28;20103;-72
2021/11/03 02:48:02;;;;;;;3.08;2.70;;;;;;;5.53;93.66;97177.03;4156692;28;20063;-72
2021/11/03 02:50:08;;;;;;;3.83;2.88;;;;;;;5.54;94.66;97178.59;4157310;28;20039;-72
2021/11/03 02:52:21;;;;;;;2.72;2.33;;;;;;;5.51;94.42;97176.63;4159707;28;20036;-72
2021/11/03 02:54:22;;;;;;;3.13;2.60;;;;;;;5.49;93.96;97175.44;4158152;28;20079;-72
2021/11/03 02:56:26;;;;;;;3.60;2.58;;;;;;;5.50;94.02;97172.31;4160528;28;20197;-72
2021/11/03 02:58:27;;;;;;;3.08;2.53;;;;;;;5.51;94.38;97171.13;4160607;28;20037;-72
2021/11/03 03:00:27;;;;;;;3.28;2.40;;;;;;;5.50;95.39;97171.53;4156981;28;20041;-72
2021/11/03 03:02:27;;;;;;;3.35;2.40;;;;;;;5.49;95.56;97170.72;4155837;28;20072;-72
2021/11/03 03:04:40;;;;;;;5.18;2.28;;;;;;;5.43;95.23;97164.00;4157181;28;20497;-72
2021/11/03 03:06:41;;;;;;;3.65;2.40;;;;;;;5.42;95.65;97169.88;4159458;28;20401;-72
2021/11/03 03:08:41;;;;;;;3.50;2.67;;;;;;;5.39;95.10;97171.41;4159228;28;20119;-72
2021/11/03 03:10:41;;;;;;;4.68;2.40;;;;;;;5.39;95.71;97182.38;4161851;28;20053;-72
2021/11/03 03:12:42;;;;;;;3.95;3.10;;;;;;;5.38;95.55;97180.00;4157600;28;20041;-72
2021/11/03 03:14:45;;;;;;;3.83;2.80;;;;;;;5.36;96.07;97172.16;4160228;28;20092;-72
2021/11/03 03:16:46;;;;;;;4.38;2.80;;;;;;;5.33;96.04;97170.94;4156974;28;20297;-72
2021/11/03 03:18:47;;;;;;;3.53;2.70;;;;;;;5.30;95.36;97170.94;4156120;28;20135;-72
2021/11/03 03:20:48;;;;;;;4.95;2.80;;;;;;;5.32;95.41;97168.59;4155975;28;20046;-72
2021/11/03 03:22:48;;;;;;;3.55;2.97;;;;;;;5.27;95.62;97164.22;4155384;28;20454;-72
2021/11/03 03:24:48;;;;;;;4.88;3.60;;;;;;;5.28;96.48;97171.28;4155207;28;20486;-72
2021/11/03 03:26:50;;;;;;;6.38;4.97;;;;;;;5.24;96.53;97181.44;4158582;28;20364;-72
2021/11/03 03:28:51;;;;;;;9.25;6.82;;;;;;;5.20;97.21;97182.53;4156365;28;20132;-72
2021/11/03 03:30:51;;;;;;;7.22;5.75;;;;;;;5.22;97.20;97202.16;4156308;28;20041;-72
2021/11/03 03:32:52;;;;;;;5.25;4.15;;;;;;;5.24;95.76;97197.09;4156818;28;20060;-72
2021/11/03 03:34:52;;;;;;;5.40;4.07;;;;;;;5.27;95.74;97190.84;4155668;28;20505;-72
2021/11/03 03:36:54;;;;;;;5.63;5.03;;;;;;;5.25;95.94;97183.00;4157026;28;20052;-72
2021/11/03 03:38:55;;;;;;;5.70;4.03;;;;;;;5.23;96.32;97190.81;4155705;28;20048;-72
2021/11/03 03:40:56;;;;;;;8.30;6.18;;;;;;;5.21;97.14;97192.34;4158369;28;20064;-72
2021/11/03 03:42:56;;;;;;;5.40;4.50;;;;;;;5.21;96.59;97192.34;4155993;28;20049;-72
2021/11/03 03:44:56;;;;;;;5.22;4.15;;;;;;;5.20;95.77;97190.75;4154475;28;20313;-72
2021/11/03 03:46:57;;;;;;;6.28;4.22;;;;;;;5.21;95.76;97195.91;4156866;28;20391;-72
2021/11/03 03:48:58;;;;;;;4.50;3.65;;;;;;;5.24;95.56;97194.34;4156013;28;20050;-72
2021/11/03 03:50:58;;;;;;;4.45;3.97;;;;;;;5.26;95.43;97186.53;4156809;28;20136;-72
2021/11/03 03:52:58;;;;;;;6.20;4.78;;;;;;;5.24;96.06;97205.31;4156012;28;20399;-72
2021/11/03 03:54:59;;;;;;;7.70;4.50;;;;;;;5.18;96.51;97188.41;4154970;28;20551;-73
2021/11/03 03:56:59;;;;;;;9.35;7.03;;;;;;;5.24;96.30;97194.34;4156036;28;20308;-72
2021/11/03 03:59:00;;;;;;;6.85;5.20;;;;;;;5.20;95.72;97194.28;4156057;28;20034;-72
2021/11/03 04:01:00;;;;;;;5.97;4.68;;;;;;;5.18;96.15;97191.16;4155775;28;20516;-72
2021/11/03 04:03:01;;;;;;;4.97;4.18;;;;;;;5.17;95.81;97192.31;4157534;28;20038;-72
2021/11/03 04:05:01;;;;;;;5.45;3.90;;;;;;;5.18;95.74;97196.63;4155880;28;20084;-72
2021/11/03 04:07:02;;;;;;;4.65;3.83;;;;;;;5.15;96.72;97185.63;4155566;28;20390;-72
2021/11/03 04:09:04;;;;;;;4.68;3.63;;;;;;;5.14;96.19;97189.53;4155230;28;20617;-72
2021/11/03 04:11:04;;;;;;;4.18;3.70;;;;;;;5.15;95.95;97191.91;4156239;28;20041;-72
2021/11/03 04:13:06;;;;;;;4.13;3.47;;;;;;;5.15;95.17;97182.88;4155557;28;20041;-72
2021/11/03 04:15:08;;;;;;;4.60;3.47;;;;;;;5.12;95.44;97186.34;4155712;28;20058;-72
2021/11/03 04:17:09;;;;;;;4.32;3.60;;;;;;;5.13;95.18;97182.44;4155969;28;20041;-72
2021/11/03 04:19:09;;;;;;;4.78;3.28;;;;;;;5.13;95.05;97182.44;4155700;28;20048;-72
2021/11/03 04:21:09;;;;;;;3.60;3.03;;;;;;;5.10;95.15;97181.25;4155396;28;20447;-72
2021/11/03 04:23:10;;;;;;;4.47;3.45;;;;;;;5.07;94.89;97188.28;4155071;28;20624;-72
2021/11/03 04:25:12;;;;;;;4.13;3.42;;;;;;;5.08;95.21;97181.63;4155365;28;20476;-72
2021/11/03 04:27:12;;;;;;;4.35;3.22;;;;;;;5.08;94.44;97189.84;4155714;28;20486;-72
2021/11/03 04:29:12;;;;;;;4.30;3.50;;;;;;;5.06;94.38;97180.44;4155943;28;20072;-72
2021/11/03 04:31:13;;;;;;;3.97;2.70;;;;;;;5.06;94.60;97181.22;4157800;28;20324;-72
2021/11/03 04:33:13;;;;;;;3.22;2.83;;;;;;;5.10;94.59;97173.03;4154913;28;20045;-72
2021/11/03 04:35:14;;;;;;;3.70;2.80;;;;;;;5.14;93.23;97189.53;4158922;28;20210;-72
2021/11/03 04:37:15;;;;;;;2.78;2.30;;;;;;;5.16;93.25;97184.47;4156989;28;20065;-72
2021/11/03 04:39:16;;;;;;;3.67;2.47;;;;;;;5.13;93.13;97188.75;4155044;28;20148;-72
2021/11/03 04:41:16;;;;;;;2.90;2.50;;;;;;;5.09;93.05;97187.91;4155046;28;20080;-72
2021/11/03 04:43:16;;;;;;;2.80;2.30;;;;;;;5.06;92.82;97174.94;4154572;28;20470;-72
2021/11/03 04:45:18;;;;;;;2.90;2.45;;;;;;;5.08;93.02;97184.38;4157508;28;20049;-72
2021/11/03 04:47:19;;;;;;;3.40;2.88;;;;;;;5.06;92.85;97183.97;4158813;28;20135;-72
2021/11/03 04:49:19;;;;;;;3.58;2.47;;;;;;;5.07;93.44;97191.03;4154811;28;20509;-72
2021/11/03 04:51:20;;;;;;;2.88;2.55;;;;;;;5.06;93.42;97194.16;4155057;28;20137;-72
2021/11/03 04:53:22;;;;;;;2.70;2.33;;;;;;;5.05;92.94;97193.34;4154372;28;20044;-72
2021/11/03 04:55:22;;;;;;;3.85;3.35;;;;;;;5.04;93.54;97194.50;4154467;28;20061;-72
2021/11/03 04:57:23;;;;;;;3.40;2.67;;;;;;;5.00;93.04;97188.19;4156178;28;20474;-72
2021/11/03 04:59:23;;;;;;;2.85;2.53;;;;;;;4.98;93.18;97189.72;4155286;28;20037;-72
2021/11/03 05:01:25;;;;;;;3.42;2.88;;;;;;;4.94;92.63;97191.63;4158245;28;20152;-72
2021/11/03 05:03:25;;;;;;;2.67;2.42;;;;;;;4.91;92.85;97186.91;4154379;28;20041;-72
2021/11/03 05:05:25;;;;;;;3.28;2.63;;;;;;;4.87;93.06;97188.78;4154859;28;20055;-72
2021/11/03 05:07:26;;;;;;;3.13;2.55;;;;;;;4.87;92.99;97195.06;4155105;28;20459;-72
2021/11/03 05:09:27;;;;;;;3.72;2.88;;;;;;;4.82;92.90;97192.66;4159155;28;20137;-72
2021/11/03 05:11:27;;;;;;;4.65;3.30;;;;;;;4.81;93.20;97198.50;4157112;28;20505;-72
2021/11/03 05:13:28;;;;;;;3.20;2.80;;;;;;;4.79;93.33;97193.38;4154526;28;20055;-72
2021/11/03 05:15:28;;;;;;;3.92;2.60;;;;;;;4.85;93.80;97196.59;4157249;28;20114;-72
2021/11/03 05:17:28;;;;;;;3.05;2.72;;;;;;;4.91;93.41;97203.34;4155355;28;20029;-72
2021/11/03 05:19:31;;;;;;;2.63;2.42;;;;;;;4.91;92.75;97195.13;4156122;28;20041;-72
2021/11/03 05:21:34;;;;;;;2.55;2.25;;;;;;;4.93;92.80;97195.53;4157228;28;20055;-72
2021/11/03 05:23:35;;;;;;;2.72;2.40;;;;;;;4.91;92.65;97186.91;4137264;28;20077;-72
2021/11/03 05:25:35;;;;;;;2.90;2.40;;;;;;;4.92;92.99;97191.22;4156803;28;20038;-72
2021/11/03 05:27:35;;;;;;;3.72;2.75;;;;;;;4.94;92.63;97199.84;4156786;28;20053;-72
2021/11/03 05:29:36;;;;;;;2.80;2.50;;;;;;;4.94;92.82;97192.41;4156423;28;20044;-72
2021/11/03 05:31:36;;;;;;;3.00;2.75;;;;;;;4.97;92.73;97190.91;4156603;28;20041;-72
2021/11/03 05:33:37;;;;;;;3.65;3.03;;;;;;;5.00;92.27;97195.63;4155336;28;20390;-72
2021/11/03 05:35:37;;;;;;;4.20;2.90;;;;;;;5.00;93.08;97201.91;4155411;28;20144;-72
2021/11/03 05:37:38;;;;;;;4.75;3.38;;;;;;;5.03;92.44;97203.88;4154655;28;20103;-72
2021/11/03 05:39:38;;;;;;;4.38;3.33;;;;;;;5.01;92.60;97202.69;4155461;28;20468;-72
2021/11/03 05:41:39;;;;;;;5.85;4.30;;;;;;;5.00;92.63;97201.91;4154166;28;20072;-72
2021/11/03 05:43:40;;;;;;;6.13;4.60;;;;;;;5.00;92.36;97207.38;4153263;28;20040;-72
2021/11/03 05:45:40;;;;;;;18.45;12.80;;;;;;;4.98;93.05;97206.19;4156189;28;20049;-72
2021/11/03 05:47:40;;;;;;;30.88;20.17;;;;;;;4.95;92.69;97204.94;4157243;28;20168;-72
2021/11/03 05:49:41;;;;;;;29.52;19.98;;;;;;;4.92;92.42;97194.75;4163079;28;20128;-72
2021/11/03 05:51:45;;;;;;;26.48;17.05;;;;;;;4.89;93.09;97190.00;4157753;28;20426;-72
2021/11/03 05:53:46;;;;;;;20.10;14.43;;;;;;;4.90;92.62;97196.28;4157517;28;20578;-72
2021/11/03 05:55:46;;;;;;;16.63;12.90;;;;;;;4.90;92.93;97191.59;4157086;28;20467;-72
2021/11/03 05:57:47;;;;;;;17.25;13.25;;;;;;;4.89;93.26;97192.75;4157463;28;20080;-72
2021/11/03 05:59:48;;;;;;;15.20;11.40;;;;;;;4.91;93.00;97195.13;4157230;28;20439;-72
2021/11/03 06:01:49;;;;;;;16.52;11.15;;;;;;;4.90;92.95;97199.03;4160619;28;20131;-72
2021/11/03 06:03:52;;;;;;;11.90;9.77;;;;;;;4.90;93.21;97193.53;4158438;28;20044;-72
2021/11/03 06:05:53;;;;;;;15.07;11.00;;;;;;;4.90;93.32;97202.56;4162124;28;20088;-72
2021/11/03 06:07:58;;;;;;;10.38;8.35;;;;;;;4.87;92.54;97188.78;4160367;28;20485;-72
2021/11/03 06:10:00;;;;;;;9.43;8.40;;;;;;;4.85;92.72;97196.59;4159236;28;20049;-72
2021/11/03 06:12:01;;;;;;;8.48;6.88;;;;;;;4.82;93.37;97192.66;4156065;28;20050;-72
2021/11/03 06:14:01;;;;;;;12.55;8.10;;;;;;;4.81;92.97;97204.78;4158336;28;20378;-72
2021/11/03 06:16:01;;;;;;;10.50;7.53;;;;;;;4.83;93.28;97209.88;4156873;28;20072;-72
2021/11/03 06:18:02;;;;;;;16.63;7.90;;;;;;;4.79;93.23;97207.09;4144651;28;20076;-72
2021/11/03 06:20:03;;;;;;;11.27;7.28;;;;;;;4.82;93.53;97213.78;4139640;28;20103;-72
2021/11/03 06:22:03;;;;;;;10.55;6.78;;;;;;;4.82;93.70;97211.84;4141287;28;20544;-72
2021/11/03 06:24:04;;;;;;;10.02;6.53;;;;;;;4.81;93.35;97207.53;4139102;28;20391;-72
2021/11/03 06:26:04;;;;;;;8.93;5.13;;;;;;;4.78;93.24;97205.50;4141715;28;20038;-72
2021/11/03 06:28:04;;;;;;;9.48;5.70;;;;;;;4.76;93.58;97205.09;4144172;28;20092;-72
2021/11/03 06:30:06;;;;;;;13.02;5.95;;;;;;;4.77;93.82;97220.38;4145711;28;20061;-72
2021/11/03 06:32:07;;;;;;;12.75;5.55;;;;;;;4.76;93.66;97221.53;4138368;28;20042;-72
2021/11/03 06:34:08;;;;;;;11.98;4.93;;;;;;;4.71;93.82;97217.16;4138914;28;20025;-72
2021/11/03 06:36:09;;;;;;;9.10;5.07;;;;;;;4.73;93.53;97223.06;4139381;28;20440;-72
2021/11/03 06:38:14;;;;;;;8.13;4.93;;;;;;;4.73;93.82;97216.81;4138803;28;20121;-72
2021/11/03 06:40:17;;;;;;;6.90;4.30;;;;;;;4.76;93.25;97219.59;4145166;28;20373;-72
2021/11/03 06:42:17;;;;;;;4.68;4.20;;;;;;;4.75;94.00;97218.00;4141290;28;20133;-72
2021/11/03 06:44:17;;;;;;;5.15;4.40;;;;;;;4.79;93.73;97218.84;4140285;28;20347;-72
2021/11/03 06:46:18;;;;;;;6.18;4.63;;;;;;;4.81;93.98;97223.97;4140794;28;20029;-72
2021/11/03 06:48:18;;;;;;;6.30;4.18;;;;;;;4.82;93.95;97213.78;4140589;28;20036;-72
2021/11/03 06:50:29;;;;;;;4.95;3.53;;;;;;;4.79;94.10;97213.34;4142866;28;20029;-72
2021/11/03 06:52:31;;;;;;;6.30;3.25;;;;;;;4.79;94.98;97218.03;4141437;28;20046;-72
2021/11/03 06:54:32;;;;;;;4.07;3.15;;;;;;;4.77;94.72;97215.69;4144418;28;20380;-72
2021/11/03 06:56:33;;;;;;;4.20;3.17;;;;;;;4.74;95.19;97215.66;4140194;28;20056;-72
2021/11/03 06:58:34;;;;;;;4.22;3.33;;;;;;;4.77;95.45;97214.88;4140197;28;20420;-72
2021/11/03 07:00:39;;;;;;;4.45;3.15;;;;;;;4.78;95.60;97221.94;4140480;28;20038;-72
2021/11/03 07:02:40;;;;;;;7.65;3.08;;;;;;;4.81;95.75;97223.97;4140440;28;20200;-72
2021/11/03 07:04:40;;;;;;;6.32;3.17;;;;;;;4.83;95.67;97218.13;4139747;28;20038;-72
2021/11/03 07:06:41;;;;;;;5.57;3.65;;;;;;;4.86;94.92;97220.09;4141081;28;20034;-72
2021/11/03 07:08:42;;;;;;;6.95;3.50;;;;;;;4.89;94.65;97222.91;4139711;28;20056;-72
2021/11/03 07:10:46;;;;;;;4.55;3.30;;;;;;;4.93;95.03;97221.00;4141071;28;20037;-72
2021/11/03 07:12:47;;;;;;;4.55;3.67;;;;;;;4.94;95.65;97213.56;4140007;28;20046;-72
2021/11/03 07:14:47;;;;;;;5.25;3.33;;;;;;;4.97;95.81;97210.88;4139391;28;20115;-72
2021/11/03 07:16:48;;;;;;;4.93;3.60;;;;;;;5.00;95.92;97212.88;4145427;28;20080;-72
2021/11/03 07:18:48;;;;;;;3.90;3.33;;;;;;;5.03;95.49;97211.31;4148222;28;20038;-72
2021/11/03 07:20:49;;;;;;;4.97;3.45;;;;;;;5.05;96.04;97215.28;4145265;28;20041;-72
2021/11/03 07:22:50;;;;;;;4.13;3.00;;;;;;;5.07;95.26;97212.97;4139931;28;20046;-72
2021/11/03 07:24:50;;;;;;;4.70;3.80;;;;;;;5.10;95.82;97216.09;4140018;28;20471;-72
2021/11/03 07:26:50;;;;;;;5.18;3.88;;;;;;;5.12;96.75;97217.31;4139564;28;20089;-72
2021/11/03 07:28:51;;;;;;;4.20;3.45;;;;;;;5.13;96.69;97226.31;4139596;28;20162;-72
2021/11/03 07:30:52;;;;;;;6.13;3.78;;;;;;;5.14;96.32;97211.47;4141293;28;20672;-72
2021/11/03 07:32:52;;;;;;;5.75;3.55;;;;;;;5.17;96.73;97225.22;4138697;28;20359;-72
2021/11/03 07:34:53;;;;;;;5.45;3.60;;;;;;;5.22;96.99;97213.13;4139834;28;20045;-72
2021/11/03 07:36:53;;;;;;;6.60;3.65;;;;;;;5.22;96.52;97215.88;4141519;28;20505;-72
2021/11/03 07:38:53;;;;;;;5.43;3.80;;;;;;;5.26;96.01;97216.69;4142371;28;20421;-72
2021/11/03 07:40:56;;;;;;;7.43;4.10;;;;;;;5.30;96.36;97209.31;4140067;28;20045;-72
2021/11/03 07:43:00;;;;;;;4.18;3.78;;;;;;;5.35;95.74;97218.00;4142335;28;20370;-72
2021/11/03 07:45:00;;;;;;;5.10;3.65;;;;;;;5.39;95.52;97203.53;4144609;28;20151;-72
2021/11/03 07:47:01;;;;;;;6.50;4.90;;;;;;;5.44;95.97;97201.22;4139009;28;20081;-72
2021/11/03 07:49:02;;;;;;;6.78;4.35;;;;;;;5.45;95.37;97205.56;4140267;28;20046;-72
2021/11/03 07:51:10;;;;;;;5.78;4.47;;;;;;;5.51;96.21;97204.06;4140201;28;20330;-72
2021/11/03 07:53:12;;;;;;;9.30;4.30;;;;;;;5.53;96.27;97206.41;4139247;28;20077;-72
2021/11/03 07:55:12;;;;;;;6.40;4.28;;;;;;;5.54;95.67;97186.84;4139058;28;20070;-72
2021/11/03 07:57:12;;;;;;;5.38;4.00;;;;;;;5.59;95.57;97189.25;4139574;28;20070;-72
2021/11/03 07:59:15;;;;;;;6.68;4.75;;;;;;;5.63;95.07;97198.31;4139961;28;20120;-72
2021/11/03 08:01:16;;;;;;;4.88;3.65;;;;;;;5.66;94.98;97209.72;4140991;28;20073;-72
2021/11/03 08:03:17;;;;;;;8.90;6.90;;;;;;;5.69;94.98;97203.44;4138952;28;20054;-72
2021/11/03 08:05:17;;;;;;;6.85;5.40;;;;;;;5.73;94.60;97196.84;4139723;28;20041;-72
2021/11/03 08:07:17;;;;;;;6.15;4.40;;;;;;;5.83;92.98;97196.16;4139280;28;20037;-72
2021/11/03 08:09:18;;;;;;;8.00;5.38;;;;;;;5.90;93.65;97198.19;4138571;28;20139;-72
2021/11/03 08:11:18;;;;;;;8.07;5.55;;;;;;;5.94;94.79;97195.50;4141916;28;20534;-72
2021/11/03 08:13:21;;;;;;;6.20;4.75;;;;;;;6.01;93.48;97209.28;4139560;28;20037;-72
2021/11/03 08:15:23;;;;;;;5.40;4.38;;;;;;;6.05;92.75;97204.63;4138158;28;20049;-72
2021/11/03 08:17:27;;;;;;;7.40;5.82;;;;;;;6.12;92.69;97205.47;4139729;28;20042;-72
2021/11/03 08:19:42;;;;;;;7.78;5.40;;;;;;;6.20;91.96;97204.34;4145254;28;20277;-72
2021/11/03 08:21:43;;;;;;;7.13;4.80;;;;;;;6.29;89.93;97208.72;4124612;28;20050;-72
2021/11/03 08:23:43;;;;;;;6.78;5.80;;;;;;;6.34;90.57;97209.16;4138667;28;20294;-72
2021/11/03 08:25:44;;;;;;;7.38;5.30;;;;;;;6.37;90.80;97202.13;4121429;28;20043;-72
2021/11/03 08:27:44;;;;;;;5.68;4.10;;;;;;;6.41;90.03;97211.97;4139268;28;20176;-72
2021/11/03 08:29:46;;;;;;;7.13;4.20;;;;;;;6.43;90.28;97206.09;4138769;28;20265;-72
2021/11/03 08:31:48;;;;;;;4.63;3.50;;;;;;;6.43;90.61;97209.63;4142007;28;20801;-72
2021/11/03 08:33:49;;;;;;;5.82;4.25;;;;;;;6.46;88.74;97208.88;4138548;28;20048;-72
2021/11/03 08:35:52;;;;;;;5.93;4.63;;;;;;;6.51;89.91;97209.69;4139139;28;20136;-72
2021/11/03 08:37:56;;;;;;;6.00;4.50;;;;;;;6.57;88.40;97208.16;4141870;28;20044;-72
2021/11/03 08:39:58;;;;;;;7.15;3.70;;;;;;;6.63;88.33;97192.91;4139601;28;20780;-72
2021/11/03 08:41:59;;;;;;;4.20;3.72;;;;;;;6.67;88.68;97193.69;4140172;28;20129;-72
2021/11/03 08:44:00;;;;;;;4.25;3.40;;;;;;;6.72;89.60;97205.13;4137973;28;20136;-72
2021/11/03 08:46:00;;;;;;;6.95;3.72;;;;;;;6.76;91.43;97202.38;4140347;28;20460;-72
2021/11/03 08:48:01;;;;;;;6.53;3.58;;;;;;;6.79;91.76;97195.34;4155628;28;20510;-72
2021/11/03 08:50:03;;;;;;;3.70;3.17;;;;;;;6.81;90.94;97199.28;4154670;28;20118;-72
2021/11/03 08:52:05;;;;;;;3.83;3.25;;;;;;;6.84;91.33;97201.25;4155680;28;20057;-72
2021/11/03 08:54:07;;;;;;;4.50;3.17;;;;;;;6.90;91.29;97201.69;4154275;28;20205;-72
2021/11/03 08:56:08;;;;;;;4.90;3.50;;;;;;;6.95;92.17;97201.31;4156878;28;20033;-72
2021/11/03 08:58:11;;;;;;;4.00;3.20;;;;;;;7.02;90.03;97207.63;4154743;28;20040;-72
2021/11/03 09:00:23;;;;;;;8.27;4.78;;;;;;;7.09;89.65;97204.13;4155304;28;20096;-72
2021/11/03 09:02:24;;;;;;;5.78;3.97;;;;;;;7.13;88.65;97204.97;4154796;28;20484;-72
2021/11/03 09:04:25;;;;;;;16.83;11.32;;;;;;;7.16;89.99;97195.91;4155367;28;20467;-72
2021/11/03 09:06:25;;;;;;;16.38;9.80;;;;;;;7.15;89.34;97205.34;4154557;28;20029;-72
2021/11/03 09:08:26;;;;;;;29.58;14.52;;;;;;;7.16;89.41;97197.88;4155444;28;20096;-72
2021/11/03 09:10:32;;;;;;;36.75;16.77;;;;;;;7.19;88.91;97203.38;4160632;28;20081;-72
2021/11/03 09:12:33;;;;;;;15.00;8.55;;;;;;;7.17;90.44;97197.50;4154589;28;20183;-72
2021/11/03 09:14:33;;;;;;;23.02;10.88;;;;;;;7.18;89.99;97196.31;4154474;28;20136;-72
2021/11/03 09:16:34;;;;;;;15.10;9.50;;;;;;;7.21;90.07;97200.28;4154937;28;20034;-72
2021/11/03 09:18:35;;;;;;;14.48;9.25;;;;;;;7.22;87.33;97212.84;4154901;28;20084;-72
2021/11/03 09:20:35;;;;;;;11.50;7.88;;;;;;;7.28;89.67;97203.03;4154538;28;20037;-72
2021/11/03 09:22:37;;;;;;;12.20;8.00;;;;;;;7.31;89.96;97194.03;4155306;28;20045;-72
2021/11/03 09:24:38;;;;;;;8.70;6.88;;;;;;;7.33;89.08;97199.91;4159729;28;20132;-72
2021/11/03 09:26:38;;;;;;;11.23;8.88;;;;;;;7.38;88.32;97196.03;4154502;28;20112;-72
2021/11/03 09:28:40;;;;;;;10.90;6.75;;;;;;;7.42;88.06;97205.84;4154679;28;20041;-72
2021/11/03 09:30:41;;;;;;;11.13;5.90;;;;;;;7.44;87.61;97191.69;4154553;28;20673;-72
2021/11/03 09:32:44;;;;;;;5.97;4.35;;;;;;;7.46;88.00;97181.88;4155473;28;20034;-72
2021/11/03 09:34:49;;;;;;;9.63;5.95;;;;;;;7.55;88.10;97193.31;4153360;28;20374;-72
2021/11/03 09:36:50;;;;;;;7.65;4.70;;;;;;;7.57;87.99;97173.66;4154613;28;20125;-72
2021/11/03 09:38:52;;;;;;;9.95;5.40;;;;;;;7.58;89.28;97175.22;4155054;28;20530;-72